createdAt,value
2022-07-29T00:00:02.315Z,100
2022-07-29T00:01:01.927Z,100
2022-07-29T00:02:01.778Z,100
2022-07-29T00:03:01.820Z,100
2022-07-29T00:04:01.846Z,100
2022-07-29T00:05:01.766Z,100
2022-07-29T00:06:01.828Z,100
2022-07-29T00:07:01.570Z,100
2022-07-29T00:08:02.484Z,100
2022-07-29T00:09:02.409Z,100
2022-07-29T00:10:02.237Z,100
2022-07-29T00:11:02.134Z,100
2022-07-29T00:12:02.048Z,100
2022-07-29T00:13:01.888Z,100
2022-07-29T00:14:01.755Z,100
2022-07-29T00:15:01.577Z,100
2022-07-29T00:16:05.394Z,100
2022-07-29T00:17:02.277Z,100
2022-07-29T00:18:02.178Z,100
2022-07-29T00:19:02.746Z,100
2022-07-29T00:20:02.528Z,100
2022-07-29T00:21:02.459Z,100
2022-07-29T00:22:02.304Z,100
2022-07-29T00:23:02.181Z,100
2022-07-29T00:24:02.076Z,100
2022-07-29T00:25:02.012Z,100
2022-07-29T00:26:01.824Z,100
2022-07-29T00:27:01.951Z,100
2022-07-29T00:28:01.706Z,100
2022-07-29T00:29:34.322Z,100
2022-07-29T00:30:01.954Z,100
2022-07-29T00:31:01.766Z,100
2022-07-29T00:32:01.896Z,100
2022-07-29T00:33:01.775Z,100
2022-07-29T00:34:01.655Z,100
2022-07-29T00:35:02.537Z,100
2022-07-29T00:36:02.465Z,100
2022-07-29T00:37:02.289Z,100
2022-07-29T00:38:02.354Z,98
2022-07-29T00:39:02.119Z,98
2022-07-29T00:40:02.102Z,99
2022-07-29T00:41:01.952Z,99
2022-07-29T00:42:01.843Z,98
2022-07-29T00:43:01.758Z,98
2022-07-29T00:44:01.579Z,99
2022-07-29T00:45:02.464Z,99
2022-07-29T00:46:02.268Z,98
2022-07-29T00:47:02.261Z,98
2022-07-29T00:48:02.154Z,98
2022-07-29T00:49:02.168Z,97
2022-07-29T00:50:02.032Z,97
2022-07-29T00:51:01.967Z,96
2022-07-29T00:52:02.394Z,96
2022-07-29T00:53:02.313Z,96
2022-07-29T00:54:02.225Z,96
2022-07-29T00:55:08.850Z,96
2022-07-29T00:56:01.681Z,95
2022-07-29T00:57:01.562Z,95
2022-07-29T00:58:02.435Z,96
2022-07-29T00:59:02.311Z,95
2022-07-29T01:00:02.252Z,95
2022-07-29T01:01:02.315Z,95
2022-07-29T01:02:02.388Z,95
2022-07-29T01:03:04.880Z,96
2022-07-29T01:04:01.683Z,96
2022-07-29T01:05:01.527Z,95
2022-07-29T01:06:02.420Z,95
2022-07-29T01:07:02.261Z,94
2022-07-29T01:08:02.924Z,95
2022-07-29T01:09:01.689Z,95
2022-07-29T01:10:01.558Z,95
2022-07-29T01:11:02.493Z,96
2022-07-29T01:12:02.344Z,95
2022-07-29T01:13:02.278Z,95
2022-07-29T01:14:02.096Z,94
2022-07-29T01:15:01.981Z,95
2022-07-29T01:16:02.063Z,94
2022-07-29T01:17:02.069Z,94
2022-07-29T01:18:03.453Z,93
2022-07-29T01:19:01.821Z,93
2022-07-29T01:20:01.696Z,93
2022-07-29T01:21:01.617Z,93
2022-07-29T01:22:02.518Z,93
2022-07-29T01:23:02.383Z,94
2022-07-29T01:24:02.283Z,93
2022-07-29T01:25:02.132Z,93
2022-07-29T01:26:03.197Z,93
2022-07-29T01:27:01.614Z,91
2022-07-29T01:28:02.403Z,93
2022-07-29T01:29:08.402Z,92
2022-07-29T01:30:05.557Z,92
2022-07-29T01:31:03.225Z,92
2022-07-29T01:32:02.569Z,92
2022-07-29T01:33:01.539Z,92
2022-07-29T01:34:02.475Z,91
2022-07-29T01:35:02.373Z,90
2022-07-29T01:36:02.231Z,91
2022-07-29T01:37:02.119Z,88
2022-07-29T01:38:02.001Z,89
2022-07-29T01:39:01.852Z,89
2022-07-29T01:40:01.734Z,89
2022-07-29T01:41:01.777Z,89
2022-07-29T01:42:01.547Z,89
2022-07-29T01:43:02.432Z,90
2022-07-29T01:44:02.320Z,89
2022-07-29T01:45:02.223Z,88
2022-07-29T01:46:01.919Z,87
2022-07-29T01:47:02.000Z,88
2022-07-29T01:48:01.902Z,89
2022-07-29T01:49:01.853Z,88
2022-07-29T01:50:01.665Z,89
2022-07-29T01:51:01.538Z,89
2022-07-29T01:52:02.429Z,89
2022-07-29T01:53:02.300Z,91
2022-07-29T01:54:02.139Z,89
2022-07-29T01:55:01.986Z,88
2022-07-29T01:56:01.840Z,90
2022-07-29T01:57:01.681Z,90
2022-07-29T01:58:01.589Z,90
2022-07-29T01:59:02.407Z,89
2022-07-29T02:00:02.345Z,88
2022-07-29T02:01:02.046Z,89
2022-07-29T02:02:02.125Z,90
2022-07-29T02:03:01.994Z,90
2022-07-29T02:04:01.831Z,88
2022-07-29T02:05:01.844Z,89
2022-07-29T02:06:01.651Z,88
2022-07-29T02:07:01.559Z,88
2022-07-29T02:08:02.463Z,89
2022-07-29T02:09:02.272Z,88
2022-07-29T02:10:02.091Z,88
2022-07-29T02:11:01.970Z,87
2022-07-29T02:12:01.835Z,87
2022-07-29T02:13:01.734Z,86
2022-07-29T02:14:01.620Z,86
2022-07-29T02:15:02.478Z,86
2022-07-29T02:16:02.547Z,87
2022-07-29T02:17:02.409Z,87
2022-07-29T02:18:02.294Z,86
2022-07-29T02:19:02.193Z,87
2022-07-29T02:20:02.084Z,87
2022-07-29T02:21:01.951Z,87
2022-07-29T02:22:01.835Z,87
2022-07-29T02:23:01.712Z,87
2022-07-29T02:24:01.662Z,86
2022-07-29T02:25:04.115Z,86
2022-07-29T02:26:02.191Z,87
2022-07-29T02:27:02.098Z,86
2022-07-29T02:28:01.973Z,86
2022-07-29T02:29:01.828Z,87
2022-07-29T02:30:01.751Z,86
2022-07-29T02:31:01.661Z,86
2022-07-29T02:32:01.541Z,86
2022-07-29T02:33:02.425Z,86
2022-07-29T02:34:02.314Z,86
2022-07-29T02:35:02.252Z,87
2022-07-29T02:36:02.085Z,87
2022-07-29T02:37:01.953Z,87
2022-07-29T02:38:01.835Z,86
2022-07-29T02:39:01.711Z,86
2022-07-29T02:40:01.555Z,86
2022-07-29T02:41:02.428Z,86
2022-07-29T02:42:02.378Z,86
2022-07-29T02:43:02.233Z,85
2022-07-29T02:44:02.101Z,85
2022-07-29T02:45:02.030Z,85
2022-07-29T02:46:01.915Z,85
2022-07-29T02:47:01.797Z,85
2022-07-29T02:48:01.640Z,85
2022-07-29T02:49:01.823Z,86
2022-07-29T02:50:01.698Z,85
2022-07-29T02:51:01.597Z,85
2022-07-29T02:52:02.471Z,85
2022-07-29T02:53:02.353Z,86
2022-07-29T02:54:02.264Z,86
2022-07-29T02:55:02.201Z,85
2022-07-29T02:56:01.993Z,85
2022-07-29T02:57:01.881Z,85
2022-07-29T02:58:01.736Z,85
2022-07-29T02:59:01.632Z,85
2022-07-29T03:00:01.962Z,85
2022-07-29T03:01:01.906Z,86
2022-07-29T03:02:01.998Z,85
2022-07-29T03:03:01.915Z,85
2022-07-29T03:04:01.860Z,85
2022-07-29T03:05:01.851Z,85
2022-07-29T03:06:02.258Z,85
2022-07-29T03:07:02.127Z,85
2022-07-29T03:08:02.050Z,85
2022-07-29T03:09:01.901Z,85
2022-07-29T03:10:01.778Z,85
2022-07-29T03:11:01.644Z,85
2022-07-29T03:12:01.522Z,85
2022-07-29T03:13:02.391Z,85
2022-07-29T03:14:02.271Z,85
2022-07-29T03:15:02.184Z,86
2022-07-29T03:16:01.913Z,85
2022-07-29T03:17:01.827Z,85
2022-07-29T03:18:01.737Z,86
2022-07-29T03:19:01.591Z,86
2022-07-29T03:20:02.531Z,86
2022-07-29T03:21:02.437Z,85
2022-07-29T03:22:02.348Z,85
2022-07-29T03:23:02.226Z,85
2022-07-29T03:24:10.467Z,85
2022-07-29T03:25:02.157Z,85
2022-07-29T03:26:02.001Z,85
2022-07-29T03:27:01.902Z,85
2022-07-29T03:28:01.775Z,84
2022-07-29T03:29:01.729Z,84
2022-07-29T03:30:02.525Z,84
2022-07-29T03:31:02.659Z,85
2022-07-29T03:32:04.357Z,84
2022-07-29T03:33:02.502Z,84
2022-07-29T03:34:01.867Z,85
2022-07-29T03:35:01.746Z,85
2022-07-29T03:36:01.642Z,85
2022-07-29T03:37:02.512Z,84
2022-07-29T03:38:02.425Z,85
2022-07-29T03:39:02.294Z,84
2022-07-29T03:40:02.190Z,84
2022-07-29T03:41:02.072Z,85
2022-07-29T03:42:01.966Z,85
2022-07-29T03:43:01.854Z,85
2022-07-29T03:44:01.725Z,85
2022-07-29T03:45:01.615Z,86
2022-07-29T03:46:02.657Z,86
2022-07-29T03:47:01.567Z,86
2022-07-29T03:48:02.469Z,86
2022-07-29T03:49:02.148Z,85
2022-07-29T03:50:02.086Z,86
2022-07-29T03:51:01.925Z,86
2022-07-29T03:52:01.808Z,85
2022-07-29T03:53:01.677Z,86
2022-07-29T03:54:09.778Z,86
2022-07-29T03:55:02.019Z,86
2022-07-29T03:56:01.895Z,87
2022-07-29T03:57:01.751Z,87
2022-07-29T03:58:01.659Z,87
2022-07-29T03:59:01.540Z,88
2022-07-29T04:00:02.506Z,88
2022-07-29T04:01:02.063Z,88
2022-07-29T04:02:02.346Z,88
2022-07-29T04:03:02.385Z,88
2022-07-29T04:04:02.415Z,89
2022-07-29T04:05:02.447Z,89
2022-07-29T04:06:02.331Z,89
2022-07-29T04:07:02.239Z,89
2022-07-29T04:08:02.078Z,89
2022-07-29T04:09:01.971Z,90
2022-07-29T04:10:01.946Z,89
2022-07-29T04:11:01.752Z,89
2022-07-29T04:12:04.390Z,89
2022-07-29T04:13:02.309Z,89
2022-07-29T04:14:02.255Z,89
2022-07-29T04:15:02.114Z,89
2022-07-29T04:16:02.058Z,90
2022-07-29T04:17:02.182Z,90
2022-07-29T04:18:02.063Z,90
2022-07-29T04:19:01.910Z,89
2022-07-29T04:20:01.772Z,90
2022-07-29T04:21:01.584Z,90
2022-07-29T04:22:02.655Z,90
2022-07-29T04:23:02.467Z,90
2022-07-29T04:24:02.296Z,90
2022-07-29T04:25:04.723Z,90
2022-07-29T04:26:02.515Z,90
2022-07-29T04:27:02.436Z,90
2022-07-29T04:28:02.320Z,90
2022-07-29T04:29:02.163Z,90
2022-07-29T04:30:02.055Z,91
2022-07-29T04:31:02.188Z,89
2022-07-29T04:32:02.283Z,89
2022-07-29T04:33:02.261Z,90
2022-07-29T04:34:02.044Z,94
2022-07-29T04:35:01.960Z,96
2022-07-29T04:36:03.370Z,94
2022-07-29T04:37:02.160Z,90
2022-07-29T04:38:02.024Z,90
2022-07-29T04:39:01.911Z,96
2022-07-29T04:40:01.786Z,96
2022-07-29T04:41:01.887Z,100
2022-07-29T04:42:02.749Z,96
2022-07-29T04:43:05.958Z,91
2022-07-29T04:44:02.263Z,100
2022-07-29T04:45:01.894Z,98
2022-07-29T04:46:01.827Z,91
2022-07-29T04:47:01.644Z,97
2022-07-29T04:48:02.623Z,97
2022-07-29T04:49:02.510Z,93
2022-07-29T04:50:02.401Z,100
2022-07-29T04:51:02.341Z,91
2022-07-29T04:52:02.284Z,100
2022-07-29T04:53:02.200Z,90
2022-07-29T04:54:02.050Z,92
2022-07-29T04:55:01.920Z,96
2022-07-29T04:56:01.814Z,91
2022-07-29T04:57:01.716Z,91
2022-07-29T04:58:02.678Z,90
2022-07-29T04:59:02.461Z,93
2022-07-29T05:00:02.379Z,90
2022-07-29T05:01:02.573Z,92
2022-07-29T05:02:02.529Z,90
2022-07-29T05:03:02.657Z,93
2022-07-29T05:04:01.620Z,93
2022-07-29T05:05:02.533Z,93
2022-07-29T05:06:02.381Z,91
2022-07-29T05:07:02.288Z,95
2022-07-29T05:08:02.269Z,94
2022-07-29T05:09:02.023Z,91
2022-07-29T05:10:01.915Z,89
2022-07-29T05:11:13.565Z,89
2022-07-29T05:12:02.514Z,89
2022-07-29T05:13:02.412Z,89
2022-07-29T05:14:03.471Z,90
2022-07-29T05:15:02.265Z,90
2022-07-29T05:16:02.446Z,90
2022-07-29T05:17:02.265Z,90
2022-07-29T05:18:02.173Z,90
2022-07-29T05:19:02.084Z,90
2022-07-29T05:20:01.953Z,88
2022-07-29T05:21:01.862Z,89
2022-07-29T05:22:01.695Z,88
2022-07-29T05:23:01.672Z,87
2022-07-29T05:24:02.492Z,89
2022-07-29T05:25:09.223Z,89
2022-07-29T05:26:02.145Z,88
2022-07-29T05:27:02.007Z,88
2022-07-29T05:28:01.866Z,89
2022-07-29T05:29:01.743Z,88
2022-07-29T05:30:01.614Z,89
2022-07-29T05:31:01.742Z,88
2022-07-29T05:32:01.673Z,88
2022-07-29T05:33:01.498Z,88
2022-07-29T05:34:02.387Z,89
2022-07-29T05:35:02.255Z,90
2022-07-29T05:36:02.136Z,89
2022-07-29T05:37:02.024Z,90
2022-07-29T05:38:01.899Z,89
2022-07-29T05:39:01.768Z,87
2022-07-29T05:40:02.365Z,88
2022-07-29T05:41:02.111Z,88
2022-07-29T05:42:01.988Z,89
2022-07-29T05:43:01.979Z,90
2022-07-29T05:44:01.783Z,89
2022-07-29T05:45:01.677Z,89
2022-07-29T05:46:02.667Z,89
2022-07-29T05:47:02.094Z,89
2022-07-29T05:48:01.962Z,88
2022-07-29T05:49:01.978Z,89
2022-07-29T05:50:01.849Z,88
2022-07-29T05:51:01.738Z,88
2022-07-29T05:52:01.674Z,87
2022-07-29T05:53:20.673Z,86
2022-07-29T05:54:01.963Z,87
2022-07-29T05:55:01.829Z,87
2022-07-29T05:56:01.719Z,89
2022-07-29T05:57:01.571Z,87
2022-07-29T05:58:02.450Z,87
2022-07-29T05:59:02.340Z,87
2022-07-29T06:00:02.225Z,87
2022-07-29T06:01:02.364Z,87
2022-07-29T06:02:02.331Z,87
2022-07-29T06:03:02.105Z,86
2022-07-29T06:04:02.128Z,88
2022-07-29T06:05:02.285Z,88
2022-07-29T06:06:02.126Z,88
2022-07-29T06:07:02.015Z,88
2022-07-29T06:08:01.939Z,88
2022-07-29T06:09:13.330Z,86
2022-07-29T06:10:01.996Z,86
2022-07-29T06:11:01.826Z,87
2022-07-29T06:12:01.699Z,87
2022-07-29T06:13:01.620Z,88
2022-07-29T06:14:02.474Z,86
2022-07-29T06:15:02.386Z,87
2022-07-29T06:16:02.355Z,86
2022-07-29T06:17:02.268Z,86
2022-07-29T06:18:02.577Z,85
2022-07-29T06:19:02.432Z,85
2022-07-29T06:20:02.310Z,85
2022-07-29T06:21:02.200Z,86
2022-07-29T06:22:02.038Z,84
2022-07-29T06:23:01.947Z,85
2022-07-29T06:24:01.788Z,85
2022-07-29T06:25:01.673Z,85
2022-07-29T06:26:01.531Z,84
2022-07-29T06:27:02.416Z,82
2022-07-29T06:28:02.323Z,82
2022-07-29T06:29:02.217Z,83
2022-07-29T06:30:02.091Z,82
2022-07-29T06:31:02.316Z,84
2022-07-29T06:32:02.136Z,84
2022-07-29T06:33:02.024Z,83
2022-07-29T06:34:01.881Z,83
2022-07-29T06:35:42.261Z,83
2022-07-29T06:36:02.424Z,81
2022-07-29T06:37:01.920Z,81
2022-07-29T06:38:02.462Z,83
2022-07-29T06:39:04.110Z,83
2022-07-29T06:40:01.890Z,81
2022-07-29T06:41:01.771Z,80
2022-07-29T06:42:01.605Z,80
2022-07-29T06:43:02.486Z,81
2022-07-29T06:44:02.377Z,80
2022-07-29T06:45:09.256Z,80
2022-07-29T06:46:02.307Z,82
2022-07-29T06:47:02.217Z,81
2022-07-29T06:48:02.067Z,82
2022-07-29T06:49:02.077Z,81
2022-07-29T06:50:02.633Z,80
2022-07-29T06:51:01.540Z,79
2022-07-29T06:52:02.441Z,78
2022-07-29T06:53:02.344Z,79
2022-07-29T06:54:13.770Z,78
2022-07-29T06:55:01.849Z,78
2022-07-29T06:56:01.730Z,78
2022-07-29T06:57:01.568Z,79
2022-07-29T06:58:02.438Z,79
2022-07-29T06:59:02.306Z,79
2022-07-29T07:00:02.186Z,80
2022-07-29T07:01:02.305Z,79
2022-07-29T07:02:02.312Z,80
2022-07-29T07:03:02.162Z,78
2022-07-29T07:04:02.054Z,80
2022-07-29T07:05:01.944Z,79
2022-07-29T07:06:01.808Z,79
2022-07-29T07:07:01.685Z,80
2022-07-29T07:08:01.528Z,81
2022-07-29T07:09:02.440Z,80
2022-07-29T07:10:02.268Z,80
2022-07-29T07:11:02.142Z,80
2022-07-29T07:12:02.007Z,82
2022-07-29T07:13:01.843Z,81
2022-07-29T07:14:04.612Z,81
2022-07-29T07:15:02.419Z,80
2022-07-29T07:16:02.045Z,79
2022-07-29T07:17:02.006Z,80
2022-07-29T07:18:01.875Z,80
2022-07-29T07:19:01.731Z,80
2022-07-29T07:20:01.562Z,79
2022-07-29T07:21:02.465Z,80
2022-07-29T07:22:04.140Z,79
2022-07-29T07:23:01.561Z,79
2022-07-29T07:24:02.465Z,80
2022-07-29T07:25:02.417Z,77
2022-07-29T07:26:02.203Z,78
2022-07-29T07:27:02.076Z,78
2022-07-29T07:28:02.853Z,78
2022-07-29T07:29:01.629Z,78
2022-07-29T07:30:02.518Z,78
2022-07-29T07:31:02.428Z,78
2022-07-29T07:32:02.391Z,78
2022-07-29T07:33:02.189Z,78
2022-07-29T07:34:02.154Z,77
2022-07-29T07:35:01.949Z,75
2022-07-29T07:36:01.827Z,75
2022-07-29T07:37:01.684Z,74
2022-07-29T07:38:01.534Z,75
2022-07-29T07:39:02.458Z,76
2022-07-29T07:40:02.297Z,74
2022-07-29T07:41:02.224Z,73
2022-07-29T07:42:02.036Z,75
2022-07-29T07:43:01.927Z,75
2022-07-29T07:44:01.850Z,75
2022-07-29T07:45:16.321Z,75
2022-07-29T07:46:02.453Z,74
2022-07-29T07:47:12.409Z,73
2022-07-29T07:48:02.616Z,75
2022-07-29T07:49:02.565Z,76
2022-07-29T07:50:02.456Z,74
2022-07-29T07:51:02.324Z,76
2022-07-29T07:52:02.230Z,75
2022-07-29T07:53:02.051Z,76
2022-07-29T07:54:02.979Z,77
2022-07-29T07:55:01.673Z,79
2022-07-29T07:56:12.611Z,76
2022-07-29T07:57:01.777Z,78
2022-07-29T07:58:01.661Z,77
2022-07-29T07:59:02.490Z,77
2022-07-29T08:00:02.332Z,76
2022-07-29T08:01:02.442Z,75
2022-07-29T08:02:02.631Z,75
2022-07-29T08:03:01.624Z,76
2022-07-29T08:04:02.505Z,75
2022-07-29T08:05:02.357Z,76
2022-07-29T08:06:02.245Z,74
2022-07-29T08:07:02.098Z,74
2022-07-29T08:08:02.091Z,75
2022-07-29T08:09:29.590Z,74
2022-07-29T08:10:02.454Z,72
2022-07-29T08:11:09.620Z,75
2022-07-29T08:12:01.687Z,72
2022-07-29T08:13:01.591Z,73
2022-07-29T08:14:02.447Z,74
2022-07-29T08:15:02.343Z,75
2022-07-29T08:16:02.433Z,74
2022-07-29T08:17:02.647Z,74
2022-07-29T08:18:08.957Z,72
2022-07-29T08:19:01.823Z,72
2022-07-29T08:20:01.730Z,74
2022-07-29T08:21:01.555Z,73
2022-07-29T08:22:02.442Z,72
2022-07-29T08:23:02.251Z,72
2022-07-29T08:24:07.636Z,73
2022-07-29T08:25:02.446Z,72
2022-07-29T08:26:02.290Z,72
2022-07-29T08:27:02.158Z,71
2022-07-29T08:28:01.979Z,71
2022-07-29T08:29:01.843Z,70
2022-07-29T08:30:01.733Z,70
2022-07-29T08:31:02.412Z,68
2022-07-29T08:32:03.569Z,69
2022-07-29T08:33:02.446Z,69
2022-07-29T08:34:02.439Z,68
2022-07-29T08:35:02.219Z,67
2022-07-29T08:36:02.155Z,68
2022-07-29T08:37:01.925Z,67
2022-07-29T08:38:02.749Z,67
2022-07-29T08:39:01.600Z,68
2022-07-29T08:40:02.603Z,67
2022-07-29T08:41:02.466Z,68
2022-07-29T08:42:02.443Z,65
2022-07-29T08:43:02.386Z,67
2022-07-29T08:44:02.191Z,66
2022-07-29T08:45:02.172Z,66
2022-07-29T08:46:01.953Z,65
2022-07-29T08:47:02.024Z,65
2022-07-29T08:48:01.860Z,66
2022-07-29T08:49:01.818Z,64
2022-07-29T08:50:01.723Z,64
2022-07-29T08:51:04.354Z,65
2022-07-29T08:52:01.838Z,66
2022-07-29T08:53:01.821Z,65
2022-07-29T08:54:01.576Z,65
2022-07-29T08:55:02.591Z,63
2022-07-29T08:56:02.379Z,64
2022-07-29T08:57:02.408Z,63
2022-07-29T08:58:02.257Z,63
2022-07-29T08:59:05.727Z,62
2022-07-29T09:00:11.332Z,63
2022-07-29T09:01:02.381Z,63
2022-07-29T09:02:03.655Z,63
2022-07-29T09:03:01.547Z,61
2022-07-29T09:04:02.720Z,62
2022-07-29T09:05:01.572Z,62
2022-07-29T09:06:02.478Z,60
2022-07-29T09:07:02.287Z,60
2022-07-29T09:08:02.246Z,61
2022-07-29T09:09:02.011Z,59
2022-07-29T09:10:02.007Z,60
2022-07-29T09:11:05.461Z,60
2022-07-29T09:12:01.550Z,58
2022-07-29T09:13:02.538Z,59
2022-07-29T09:14:02.380Z,59
2022-07-29T09:15:02.398Z,59
2022-07-29T09:16:09.452Z,57
2022-07-29T09:17:03.248Z,58
2022-07-29T09:18:01.649Z,60
2022-07-29T09:19:02.500Z,59
2022-07-29T09:20:02.312Z,59
2022-07-29T09:21:02.327Z,59
2022-07-29T09:22:04.123Z,60
2022-07-29T09:23:02.007Z,60
2022-07-29T09:24:02.019Z,61
2022-07-29T09:25:01.796Z,58
2022-07-29T09:26:01.765Z,59
2022-07-29T09:27:02.673Z,60
2022-07-29T09:28:02.426Z,60
2022-07-29T09:29:02.451Z,58
2022-07-29T09:30:02.251Z,59
2022-07-29T09:31:01.574Z,58
2022-07-29T09:32:02.718Z,60
2022-07-29T09:33:01.602Z,59
2022-07-29T09:34:02.529Z,58
2022-07-29T09:35:02.324Z,57
2022-07-29T09:36:04.222Z,56
2022-07-29T09:37:01.697Z,56
2022-07-29T09:38:01.657Z,55
2022-07-29T09:39:02.548Z,58
2022-07-29T09:40:02.346Z,57
2022-07-29T09:41:06.799Z,56
2022-07-29T09:42:01.813Z,56
2022-07-29T09:43:01.789Z,56
2022-07-29T09:44:01.560Z,57
2022-07-29T09:45:02.536Z,58
2022-07-29T09:46:01.655Z,56
2022-07-29T09:47:02.704Z,56
2022-07-29T09:48:01.667Z,57
2022-07-29T09:49:02.699Z,57
2022-07-29T09:50:01.556Z,59
2022-07-29T09:51:02.646Z,56
2022-07-29T09:52:02.392Z,57
2022-07-29T09:53:02.381Z,58
2022-07-29T09:54:02.172Z,58
2022-07-29T09:55:02.243Z,58
2022-07-29T09:56:01.994Z,58
2022-07-29T09:57:01.913Z,60
2022-07-29T09:58:01.826Z,59
2022-07-29T09:59:01.608Z,57
2022-07-29T10:00:02.603Z,58
2022-07-29T10:01:02.674Z,59
2022-07-29T10:02:01.598Z,59
2022-07-29T10:03:02.614Z,57
2022-07-29T10:04:02.481Z,58
2022-07-29T10:05:02.481Z,58
2022-07-29T10:06:02.255Z,58
2022-07-29T10:07:05.449Z,57
2022-07-29T10:08:02.383Z,58
2022-07-29T10:09:02.255Z,58
2022-07-29T10:10:02.073Z,58
2022-07-29T10:11:01.887Z,59
2022-07-29T10:12:02.114Z,58
2022-07-29T10:13:10.977Z,58
2022-07-29T10:14:02.452Z,60
2022-07-29T10:15:02.406Z,58
2022-07-29T10:16:02.276Z,57
2022-07-29T10:17:02.207Z,57
2022-07-29T10:18:01.987Z,56
2022-07-29T10:19:01.869Z,56
2022-07-29T10:20:02.466Z,56
2022-07-29T10:21:01.923Z,57
2022-07-29T10:22:02.450Z,56
2022-07-29T10:23:01.918Z,56
2022-07-29T10:24:02.021Z,57
2022-07-29T10:25:01.795Z,57
2022-07-29T10:26:01.777Z,56
2022-07-29T10:27:01.570Z,55
2022-07-29T10:28:02.545Z,55
2022-07-29T10:29:02.342Z,56
2022-07-29T10:30:02.348Z,56
2022-07-29T10:31:02.097Z,58
2022-07-29T10:32:02.031Z,57
2022-07-29T10:33:02.021Z,57
2022-07-29T10:34:01.802Z,57
2022-07-29T10:35:01.748Z,57
2022-07-29T10:36:01.694Z,57
2022-07-29T10:37:02.534Z,57
2022-07-29T10:38:01.657Z,56
2022-07-29T10:39:03.591Z,55
2022-07-29T10:40:03.027Z,54
2022-07-29T10:41:01.915Z,55
2022-07-29T10:42:03.796Z,52
2022-07-29T10:43:01.652Z,52
2022-07-29T10:44:01.664Z,53
2022-07-29T10:45:02.571Z,52
2022-07-29T10:46:02.521Z,53
2022-07-29T10:47:02.725Z,54
2022-07-29T10:48:01.764Z,53
2022-07-29T10:49:01.746Z,52
2022-07-29T10:50:02.020Z,53
2022-07-29T10:51:04.326Z,50
2022-07-29T10:52:02.142Z,51
2022-07-29T10:53:05.146Z,52
2022-07-29T10:54:01.842Z,53
2022-07-29T10:55:03.229Z,52
2022-07-29T10:56:06.698Z,52
2022-07-29T10:57:03.258Z,52
2022-07-29T10:58:01.847Z,53
2022-07-29T10:59:01.743Z,52
2022-07-29T11:00:03.021Z,52
2022-07-29T11:01:04.342Z,52
2022-07-29T11:02:41.205Z,51
2022-07-29T11:03:08.511Z,52
2022-07-29T11:04:01.754Z,52
2022-07-29T11:05:01.581Z,53
2022-07-29T11:06:08.914Z,53
2022-07-29T11:07:04.320Z,53
2022-07-29T11:08:02.608Z,53
2022-07-29T11:09:02.354Z,53
2022-07-29T11:10:02.135Z,52
2022-07-29T11:11:04.613Z,52
2022-07-29T11:12:03.306Z,51
2022-07-29T11:13:02.492Z,52
2022-07-29T11:14:02.262Z,52
2022-07-29T11:15:01.673Z,52
2022-07-29T11:16:02.221Z,52
2022-07-29T11:17:02.524Z,53
2022-07-29T11:18:01.640Z,53
2022-07-29T11:19:03.073Z,53
2022-07-29T11:20:01.839Z,53
2022-07-29T11:21:02.730Z,52
2022-07-29T11:22:02.200Z,53
2022-07-29T11:23:03.314Z,52
2022-07-29T11:24:02.637Z,53
2022-07-29T11:25:02.641Z,53
2022-07-29T11:26:03.887Z,54
2022-07-29T11:27:02.396Z,53
2022-07-29T11:28:02.077Z,54
2022-07-29T11:29:02.438Z,53
2022-07-29T11:30:03.772Z,54
2022-07-29T11:31:02.046Z,54
2022-07-29T11:32:01.916Z,54
2022-07-29T11:33:03.443Z,54
2022-07-29T11:34:05.988Z,53
2022-07-29T11:36:03.693Z,54
2022-07-29T11:37:03.052Z,53
2022-07-29T11:38:03.333Z,54
2022-07-29T11:39:01.597Z,54
2022-07-29T11:40:02.517Z,54
2022-07-29T11:41:02.599Z,54
2022-07-29T11:42:13.905Z,53
2022-07-29T11:43:07.532Z,54
2022-07-29T11:44:01.974Z,54
2022-07-29T11:45:42.297Z,53
2022-07-29T11:46:02.343Z,53
2022-07-29T11:47:02.188Z,53
2022-07-29T11:48:32.275Z,53
2022-07-29T11:49:01.725Z,54
2022-07-29T11:50:01.684Z,54
2022-07-29T11:51:03.428Z,55
2022-07-29T11:53:08.990Z,54
2022-07-29T11:54:05.720Z,54
2022-07-29T11:55:10.585Z,53
2022-07-29T11:56:03.119Z,52
2022-07-29T11:57:02.622Z,51
2022-07-29T11:58:04.715Z,51
2022-07-29T11:59:01.642Z,51
2022-07-29T12:00:12.366Z,51
2022-07-29T12:01:05.402Z,51
2022-07-29T12:02:38.199Z,52
2022-07-29T12:03:02.156Z,51
2022-07-29T12:04:02.851Z,53
2022-07-29T12:05:11.291Z,52
2022-07-29T12:06:02.118Z,51
2022-07-29T12:07:03.019Z,54
2022-07-29T12:08:02.358Z,52
2022-07-29T12:09:02.135Z,53
2022-07-29T12:10:03.024Z,53
2022-07-29T12:11:02.380Z,50
2022-07-29T12:12:05.939Z,51
2022-07-29T12:13:02.108Z,52
2022-07-29T12:14:02.108Z,53
2022-07-29T12:15:02.222Z,52
2022-07-29T12:16:02.777Z,54
2022-07-29T12:17:01.661Z,53
2022-07-29T12:18:04.278Z,53
2022-07-29T12:19:02.853Z,52
2022-07-29T12:20:02.717Z,52
2022-07-29T12:21:03.881Z,52
2022-07-29T12:22:02.763Z,53
2022-07-29T12:23:02.812Z,52
2022-07-29T12:24:09.710Z,53
2022-07-29T12:25:33.862Z,52
2022-07-29T12:26:02.486Z,53
2022-07-29T12:27:02.791Z,53
2022-07-29T12:28:02.229Z,53
2022-07-29T12:29:03.400Z,52
2022-07-29T12:30:02.594Z,53
2022-07-29T12:31:02.442Z,54
2022-07-29T12:32:02.927Z,53
2022-07-29T12:33:01.793Z,53
2022-07-29T12:34:01.767Z,55
2022-07-29T12:35:01.534Z,54
2022-07-29T12:36:09.552Z,54
2022-07-29T12:37:02.289Z,52
2022-07-29T12:38:02.235Z,53
2022-07-29T12:39:02.017Z,53
2022-07-29T12:40:01.921Z,53
2022-07-29T12:41:04.986Z,53
2022-07-29T12:42:05.391Z,53
2022-07-29T12:43:02.361Z,53
2022-07-29T12:44:02.339Z,52
2022-07-29T12:45:02.107Z,52
2022-07-29T12:46:02.098Z,52
2022-07-29T12:47:02.049Z,53
2022-07-29T12:48:01.839Z,52
2022-07-29T12:49:04.535Z,53
2022-07-29T12:50:02.557Z,52
2022-07-29T12:51:02.374Z,52
2022-07-29T12:52:02.447Z,52
2022-07-29T12:53:02.241Z,52
2022-07-29T12:54:02.294Z,53
2022-07-29T12:55:02.126Z,53
2022-07-29T12:56:01.541Z,53
2022-07-29T12:57:02.139Z,53
2022-07-29T12:58:01.896Z,54
2022-07-29T12:59:01.864Z,53
2022-07-29T13:00:01.763Z,53
2022-07-29T13:01:01.722Z,53
2022-07-29T13:02:01.990Z,52
2022-07-29T13:03:02.129Z,53
2022-07-29T13:04:02.020Z,52
2022-07-29T13:05:01.949Z,52
2022-07-29T13:06:01.810Z,54
2022-07-29T13:07:01.674Z,53
2022-07-29T13:08:03.296Z,52
2022-07-29T13:09:02.076Z,52
2022-07-29T13:10:02.051Z,53
2022-07-29T13:11:01.804Z,53
2022-07-29T13:12:02.073Z,53
2022-07-29T13:13:02.451Z,53
2022-07-29T13:14:07.482Z,52
2022-07-29T13:15:02.254Z,51
2022-07-29T13:16:02.385Z,53
2022-07-29T13:17:02.571Z,52
2022-07-29T13:18:02.557Z,52
2022-07-29T13:19:02.345Z,53
2022-07-29T13:20:04.355Z,54
2022-07-29T13:21:01.594Z,54
2022-07-29T13:22:02.598Z,54
2022-07-29T13:23:02.491Z,53
2022-07-29T13:24:02.317Z,54
2022-07-29T13:25:02.279Z,53
2022-07-29T13:26:02.036Z,53
2022-07-29T13:27:05.925Z,54
2022-07-29T13:28:01.739Z,54
2022-07-29T13:29:01.655Z,53
2022-07-29T13:30:02.619Z,53
2022-07-29T13:31:01.893Z,53
2022-07-29T13:32:01.946Z,53
2022-07-29T13:33:01.742Z,54
2022-07-29T13:34:01.732Z,54
2022-07-29T13:35:05.802Z,53
2022-07-29T13:36:01.621Z,54
2022-07-29T13:37:02.579Z,54
2022-07-29T13:38:02.390Z,55
2022-07-29T13:39:02.404Z,55
2022-07-29T13:40:02.201Z,54
2022-07-29T13:41:02.201Z,54
2022-07-29T13:42:02.304Z,55
2022-07-29T13:43:02.100Z,54
2022-07-29T13:44:02.065Z,55
2022-07-29T13:45:01.867Z,54
2022-07-29T13:46:01.681Z,54
2022-07-29T13:47:01.732Z,54
2022-07-29T13:48:02.603Z,55
2022-07-29T13:49:02.558Z,55
2022-07-29T13:50:02.519Z,55
2022-07-29T13:51:02.307Z,57
2022-07-29T13:52:02.298Z,55
2022-07-29T13:53:02.095Z,55
2022-07-29T13:54:02.842Z,56
2022-07-29T13:55:01.709Z,54
2022-07-29T13:56:02.578Z,54
2022-07-29T13:57:02.416Z,54
2022-07-29T13:58:04.399Z,54
2022-07-29T13:59:02.187Z,53
2022-07-29T14:00:02.176Z,52
2022-07-29T14:01:02.300Z,51
2022-07-29T14:02:02.300Z,52
2022-07-29T14:03:02.255Z,51
2022-07-29T14:04:02.133Z,52
2022-07-29T14:05:08.748Z,51
2022-07-29T14:06:01.799Z,51
2022-07-29T14:07:03.987Z,52
2022-07-29T14:08:01.779Z,51
2022-07-29T14:09:01.754Z,50
2022-07-29T14:10:01.542Z,51
2022-07-29T14:11:02.530Z,49
2022-07-29T14:12:02.323Z,49
2022-07-29T14:13:02.316Z,51
2022-07-29T14:14:01.999Z,51
2022-07-29T14:15:01.906Z,51
2022-07-29T14:16:01.683Z,51